PVG77 RJAA-EPWR
Flight info
| Callsign | PVG77 |
|---|---|
| Flight time | N/A |
| Altitude | 30000 |
| Route | ENPAR Y16 SAPRA/N0498F320 G585 SEL Y697 AGAVO/K0917S0980 A591 IKEKA W4 HCH W200 DOVIV W55 PAMRU W34 VYK B215 LEBOM W104 VEXEB W47 IDSOT W48 DKO W66 IPDAT/K0913S1040 W66 NUKTI B215 FKG A368 SARIN/K0898F340 N161 ALZIS/K0896F360 N161 GASBI/N0489F360 N161 LEYLA N644 TETRO DCT SARPI UM10 GOKPA/N0489F380 UL746 ODERO DCT KARIL DCT LENOV L619 LUMVE |
| Aircraft | B77W/H-SDE1E2E3FGHIJ2J3J4J5M1RWXY/LB1D1 |
Departure
| Time | N/A |
|---|---|
| Airport | Narita International Airport (RJAA) |
Arrival
| Time | 2026-05-06 04:52 |
|---|---|
| Airport | Copernicus Wrocław Airport (EPWR) |
| Time | Latitude | Longitude | Altitude | Speed | Heading |
|---|---|---|---|---|---|
| 2026-05-06 04:22 | 51.13448 | 16.78583 | 31000 ft | 338 kts | 291° |
| 2026-05-06 04:23 | 51.15475 | 16.72234 | 30125 ft | 335 kts | 296° |
| 2026-05-06 04:23 | 51.16952 | 16.69527 | 29608 ft | 345 kts | 320° |
| 2026-05-06 04:23 | 51.19011 | 16.67919 | 29207 ft | 350 kts | 344° |
| 2026-05-06 04:23 | 51.21354 | 16.67721 | 28722 ft | 353 kts | 10° |
| 2026-05-06 04:24 | 51.23531 | 16.69012 | 28220 ft | 352 kts | 36° |
| 2026-05-06 04:24 | 51.25200 | 16.71551 | 27688 ft | 347 kts | 61° |
| 2026-05-06 04:24 | 51.26094 | 16.74886 | 27167 ft | 337 kts | 85° |
| 2026-05-06 04:24 | 51.26109 | 16.78402 | 26653 ft | 325 kts | 108° |
| 2026-05-06 04:25 | 51.25333 | 16.81547 | 26104 ft | 314 kts | 131° |
| 2026-05-06 04:25 | 51.23926 | 16.83885 | 25606 ft | 302 kts | 153° |
| 2026-05-06 04:25 | 51.22124 | 16.85119 | 25099 ft | 291 kts | 174° |
| 2026-05-06 04:25 | 51.20866 | 16.85498 | 24807 ft | 291 kts | 169° |
| 2026-05-06 04:26 | 51.18539 | 16.87381 | 24152 ft | 302 kts | 144° |
| 2026-05-06 04:26 | 51.17050 | 16.89564 | 23761 ft | 302 kts | 141° |
| 2026-05-06 04:26 | 51.15608 | 16.91777 | 23357 ft | 302 kts | 141° |
| 2026-05-06 04:26 | 51.14165 | 16.93997 | 22966 ft | 300 kts | 141° |
| 2026-05-06 04:27 | 51.12717 | 16.96223 | 22582 ft | 299 kts | 141° |
| 2026-05-06 04:27 | 51.11288 | 16.98418 | 22201 ft | 298 kts | 141° |
| 2026-05-06 04:27 | 51.09810 | 17.00487 | 21795 ft | 292 kts | 154° |
| 2026-05-06 04:27 | 51.08066 | 17.01582 | 21407 ft | 280 kts | 176° |
| 2026-05-06 04:28 | 51.06239 | 17.01514 | 21019 ft | 271 kts | 197° |
| 2026-05-06 04:28 | 51.04600 | 17.00382 | 20575 ft | 269 kts | 217° |
| 2026-05-06 04:28 | 51.03356 | 16.98361 | 20196 ft | 266 kts | 237° |
| 2026-05-06 04:28 | 51.02667 | 16.95780 | 19754 ft | 271 kts | 257° |
| 2026-05-06 04:29 | 51.02640 | 16.92944 | 19486 ft | 270 kts | 278° |
| 2026-05-06 04:29 | 51.03297 | 16.90350 | 19454 ft | 259 kts | 298° |
| 2026-05-06 04:29 | 51.04433 | 16.88391 | 19403 ft | 244 kts | 313° |
| 2026-05-06 04:29 | 51.05618 | 16.86778 | 19099 ft | 225 kts | 312° |
| 2026-05-06 04:30 | 51.06726 | 16.85187 | 18322 ft | 227 kts | 311° |
| 2026-05-06 04:30 | 51.07825 | 16.83558 | 17631 ft | 226 kts | 311° |
| 2026-05-06 04:30 | 51.08902 | 16.81939 | 16969 ft | 223 kts | 310° |
| 2026-05-06 04:30 | 51.09971 | 16.80317 | 16316 ft | 220 kts | 310° |
| 2026-05-06 04:31 | 51.11044 | 16.78786 | 15667 ft | 222 kts | 319° |
| 2026-05-06 04:31 | 51.12376 | 16.77713 | 14989 ft | 228 kts | 338° |
| 2026-05-06 04:31 | 51.13872 | 16.77343 | 14335 ft | 231 kts | 357° |
| 2026-05-06 04:31 | 51.15391 | 16.77746 | 13676 ft | 233 kts | 18° |
| 2026-05-06 04:32 | 51.16737 | 16.78887 | 13061 ft | 230 kts | 38° |
| 2026-05-06 04:32 | 51.17778 | 16.80632 | 12453 ft | 226 kts | 58° |
| 2026-05-06 04:32 | 51.18412 | 16.82757 | 11845 ft | 220 kts | 78° |
| 2026-05-06 04:32 | 51.18605 | 16.84983 | 11248 ft | 214 kts | 95° |
| 2026-05-06 04:33 | 51.18380 | 16.87190 | 10646 ft | 206 kts | 113° |
| 2026-05-06 04:33 | 51.17798 | 16.89107 | 10051 ft | 199 kts | 129° |
| 2026-05-06 04:33 | 51.16942 | 16.90637 | 9470 ft | 192 kts | 144° |
| 2026-05-06 04:33 | 51.15943 | 16.91870 | 8882 ft | 190 kts | 146° |
| 2026-05-06 04:34 | 51.14973 | 16.93142 | 8304 ft | 190 kts | 144° |
| 2026-05-06 04:34 | 51.14020 | 16.94467 | 7718 ft | 190 kts | 143° |
| 2026-05-06 04:34 | 51.13100 | 16.95792 | 7161 ft | 188 kts | 142° |
| 2026-05-06 04:34 | 51.12179 | 16.97150 | 6601 ft | 187 kts | 141° |
| 2026-05-06 04:35 | 51.11275 | 16.98500 | 6013 ft | 187 kts | 141° |
| 2026-05-06 04:35 | 51.10322 | 16.99681 | 5437 ft | 182 kts | 162° |
| 2026-05-06 04:35 | 51.09171 | 16.99855 | 4841 ft | 173 kts | 197° |
| 2026-05-06 04:35 | 51.08217 | 16.98975 | 4263 ft | 166 kts | 230° |
| 2026-05-06 04:36 | 51.07747 | 16.97430 | 3705 ft | 164 kts | 260° |
| 2026-05-06 04:36 | 51.07887 | 16.95728 | 3155 ft | 166 kts | 290° |
| 2026-05-06 04:36 | 51.08602 | 16.94396 | 2782 ft | 166 kts | 316° |
| 2026-05-06 04:36 | 51.09474 | 16.93234 | 2729 ft | 172 kts | 313° |
| 2026-05-06 04:37 | 51.10316 | 16.91992 | 2725 ft | 172 kts | 312° |
| 2026-05-06 04:37 | 51.11159 | 16.90708 | 2725 ft | 172 kts | 311° |
| 2026-05-06 04:37 | 51.11978 | 16.89454 | 2726 ft | 174 kts | 312° |
| 2026-05-06 04:37 | 51.12978 | 16.88479 | 2718 ft | 181 kts | 343° |
| 2026-05-06 04:38 | 51.14181 | 16.88615 | 2712 ft | 186 kts | 21° |
| 2026-05-06 04:38 | 51.15104 | 16.89927 | 2708 ft | 190 kts | 62° |
| 2026-05-06 04:38 | 51.15313 | 16.91885 | 2710 ft | 188 kts | 104° |
| 2026-05-06 04:38 | 51.14733 | 16.93570 | 2713 ft | 180 kts | 142° |
| 2026-05-06 04:39 | 51.13786 | 16.94728 | 2725 ft | 179 kts | 145° |
| 2026-05-06 04:39 | 51.12883 | 16.95995 | 2725 ft | 179 kts | 141° |
| 2026-05-06 04:39 | 51.12012 | 16.97311 | 2726 ft | 179 kts | 141° |
| 2026-05-06 04:39 | 51.11153 | 16.98625 | 2725 ft | 180 kts | 142° |
| 2026-05-06 04:40 | 51.10135 | 16.99518 | 2722 ft | 171 kts | 176° |
| 2026-05-06 04:40 | 51.09062 | 16.99223 | 2713 ft | 164 kts | 212° |
| 2026-05-06 04:40 | 51.08336 | 16.97952 | 2711 ft | 163 kts | 247° |
| 2026-05-06 04:40 | 51.08240 | 16.96251 | 2710 ft | 165 kts | 281° |
| 2026-05-06 04:41 | 51.08828 | 16.94760 | 2711 ft | 173 kts | 316° |
| 2026-05-06 04:41 | 51.09738 | 16.93634 | 2729 ft | 174 kts | 315° |
| 2026-05-06 04:41 | 51.10604 | 16.92388 | 2732 ft | 172 kts | 312° |
| 2026-05-06 04:41 | 51.11439 | 16.91115 | 2731 ft | 172 kts | 311° |
| 2026-05-06 04:42 | 51.12256 | 16.89881 | 2552 ft | 172 kts | 317° |
| 2026-05-06 04:42 | 51.13350 | 16.89242 | 2228 ft | 183 kts | 358° |
| 2026-05-06 04:42 | 51.14479 | 16.89932 | 1931 ft | 188 kts | 43° |
| 2026-05-06 04:42 | 51.15014 | 16.91657 | 1738 ft | 181 kts | 90° |
| 2026-05-06 04:43 | 51.14675 | 16.93446 | 1729 ft | 176 kts | 132° |
| 2026-05-06 04:43 | 51.13816 | 16.94670 | 1741 ft | 173 kts | 143° |
| 2026-05-06 04:43 | 51.12946 | 16.95895 | 1742 ft | 174 kts | 141° |
| 2026-05-06 04:43 | 51.12103 | 16.97172 | 1784 ft | 171 kts | 140° |
| 2026-05-06 04:44 | 51.11266 | 16.98454 | 1960 ft | 176 kts | 140° |
| 2026-05-06 04:44 | 51.10415 | 16.99760 | 1981 ft | 176 kts | 140° |
| 2026-05-06 04:44 | 51.09566 | 17.01056 | 1984 ft | 175 kts | 140° |
| 2026-05-06 04:44 | 51.08724 | 17.02340 | 1983 ft | 175 kts | 140° |
| 2026-05-06 04:45 | 51.07848 | 17.03559 | 1971 ft | 173 kts | 158° |
| 2026-05-06 04:45 | 51.06749 | 17.03756 | 1944 ft | 166 kts | 198° |
| 2026-05-06 04:45 | 51.05868 | 17.02749 | 1924 ft | 163 kts | 228° |
| 2026-05-06 04:45 | 51.04985 | 17.01824 | 1930 ft | 165 kts | 196° |
| 2026-05-06 04:46 | 51.03923 | 17.01313 | 1922 ft | 164 kts | 216° |
| 2026-05-06 04:46 | 51.03302 | 16.99919 | 1899 ft | 165 kts | 250° |
| 2026-05-06 04:46 | 51.02859 | 16.98352 | 1911 ft | 165 kts | 230° |
| 2026-05-06 04:46 | 51.01938 | 16.97410 | 1898 ft | 168 kts | 196° |
| 2026-05-06 04:47 | 51.00817 | 16.97514 | 1878 ft | 174 kts | 161° |
| 2026-05-06 04:47 | 50.99928 | 16.98721 | 1850 ft | 181 kts | 123° |
| 2026-05-06 04:47 | 50.99702 | 17.00608 | 1820 ft | 190 kts | 81° |
| 2026-05-06 04:47 | 51.00256 | 17.02430 | 1811 ft | 193 kts | 57° |
| 2026-05-06 04:48 | 51.00979 | 17.04093 | 1810 ft | 191 kts | 55° |
| 2026-05-06 04:48 | 51.01711 | 17.05751 | 1814 ft | 191 kts | 52° |
| 2026-05-06 04:48 | 51.02713 | 17.06955 | 1806 ft | 189 kts | 14° |
| 2026-05-06 04:48 | 51.03932 | 17.06924 | 1788 ft | 181 kts | 335° |
| 2026-05-06 04:49 | 51.04838 | 17.05787 | 1772 ft | 171 kts | 297° |
| 2026-05-06 04:49 | 51.05027 | 17.04099 | 1756 ft | 164 kts | 255° |
| 2026-05-06 04:49 | 51.04427 | 17.02685 | 1748 ft | 163 kts | 223° |
| 2026-05-06 04:49 | 51.03774 | 17.01347 | 1739 ft | 164 kts | 252° |
| 2026-05-06 04:50 | 51.03859 | 16.99617 | 1643 ft | 167 kts | 294° |
| 2026-05-06 04:50 | 51.04678 | 16.98453 | 1365 ft | 170 kts | 335° |
| 2026-05-06 04:50 | 51.05786 | 16.97837 | 1363 ft | 174 kts | 337° |
| 2026-05-06 04:50 | 51.06886 | 16.97236 | 1341 ft | 176 kts | 336° |
| 2026-05-06 04:51 | 51.07834 | 16.96208 | 1236 ft | 170 kts | 304° |
| 2026-05-06 04:51 | 51.08364 | 16.94656 | 1070 ft | 167 kts | 287° |
| 2026-05-06 04:51 | 51.08855 | 16.93033 | 870 ft | 169 kts | 296° |
| 2026-05-06 04:51 | 51.09376 | 16.91448 | 660 ft | 166 kts | 295° |
| 2026-05-06 04:52 | 51.09848 | 16.89928 | 483 ft | 155 kts | 294° |
| 2026-05-06 04:52 | 51.10283 | 16.88521 | 405 ft | 133 kts | 294° |
| 2026-05-06 04:52 | 51.10590 | 16.87523 | 410 ft | 40 kts | 296° |
| 2026-05-06 04:52 | 51.10663 | 16.87304 | 412 ft | 22 kts | 319° |
| 2026-05-06 04:53 | 51.10803 | 16.87320 | 409 ft | 22 kts | 24° |
| 2026-05-06 04:53 | 51.10928 | 16.87441 | 408 ft | 21 kts | 39° |
| 2026-05-06 04:53 | 51.10998 | 16.87500 | 406 ft | 0 kts | 25° |
| 2026-05-06 04:53 | 51.11008 | 16.87508 | 405 ft | 0 kts | 27° |